Clifton Forge, VA (24422)

11:38 AM EST on December 22, 2014 (GMT -0500)
Alleghany Street | Change Station
CLOSE
Current Station
Personal Weather Station
Location: Clifton Forge, VA
Elevation: 1175 ft
Nearby Weather Stations
Active Advisory: Freezing Rain Advisory

Elev 1175 ft 37.81 °N, 79.84 °W | Updated 3 minutes ago

Overcast
Overcast
38.3 °F
Feels Like 38 °F
N
0.0
Wind Variable Wind from NE

Today
High -- | Low -- °F
--% Chance of Precip.
Yesterday
High -- | Low -- °F
Precip. -- in
7:31 AM 5:04 PM
New Moon, 1% visible
Pressure 30.12 in
Visibility 4.0 miles
Clouds Overcast 1700 ft
Windchill 38 °F
Dew Point 34 °F
Humidity 85%
Rainfall 0.00 in
Snow Depth Not available.
UV 1 out of 12
Pollen .10 out of 12
Air Quality Not available.
Flu Activity Not available.
METAR KLWB 221615Z AUTO 08004KT 4SM UP OVC017 02/00 A3012 RMK AO2 T00231005

More Conditions Fewer Conditions

Pressure 30.12 in
Visibility 4.0 miles
Clouds Overcast 1700 ft
Windchill 38 °F
Dew Point 34 °F
Humidity 85%
Rainfall 0.00 in
Snow Depth Not available.
UV 1 out of 12
Pollen .10 out of 12
Air Quality Not available.
Flu Activity Not available.
METAR KLWB 221615Z AUTO 08004KT 4SM UP OVC017 02/00 A3012 RMK AO2 T00231005

More Conditions Fewer Conditions

10-Day Weather Forecast

Almanac

Astronomy

Dec. 22, 2014 Rise Set
Actual Time
Civil Twilight
Nautical Twilight
Astronomical Twilight
Moon
Length of Visible Light
Length of Day
Tomorrow will be .
, % of the Moon is Illuminated

Today's Extremes

State Highs State Lows

Community

WunderPhotos

Upload Photos

1,779,636 photos uploaded!

WunderBlogs® & News

Nearby

Air Quality

  Air Quality AQ Index Pollutant
Not available.

Snow Depth

Station Depth Elevation

Earthquake Activity

City Distance Mag. Time & Date
Minimum magnitude displayed is 2.5.

Coastal Water Temperatures

Place Temperature

Nearby Weather Stations